Time;durP1;ratioP1;P1;durP2;ratioP2;P2;SDS_P1;SDS_P2;PMS_P1;PMS_P2;Temp;Humidity;BMP_temperature;BMP_pressure;BME280_temperature;BME280_humidity;BME280_pressure;Samples;Min_cycle;Max_cycle;Signal;HPM_P1;HPM_P2
2023/10/15 00:00:46;;;;;;;9.80;7.40;;;;;;;9.53;100.00;96821.52;110128;1246;60554;-58
2023/10/15 00:03:37;;;;;;;9.40;7.40;;;;;;;9.50;100.00;96820.65;110108;1245;60504;-58
2023/10/15 00:06:06;;;;;;;11.10;7.90;;;;;;;9.48;100.00;96819.98;110126;1246;72613;-59
2023/10/15 00:08:37;;;;;;;9.40;7.50;;;;;;;9.46;100.00;96821.15;110146;1244;69248;-58
2023/10/15 00:11:13;;;;;;;10.70;8.20;;;;;;;9.45;100.00;96819.89;110136;1246;69848;-60
2023/10/15 00:13:42;;;;;;;14.00;9.00;;;;;;;9.45;100.00;96818.30;110121;1244;60599;-60
2023/10/15 00:16:21;;;;;;;13.80;10.30;;;;;;;9.46;100.00;96813.34;110129;1246;60547;-59
2023/10/15 00:18:50;;;;;;;15.90;11.20;;;;;;;9.44;100.00;96814.86;110124;1245;72364;-60
2023/10/15 00:21:21;;;;;;;12.30;10.00;;;;;;;9.41;100.00;96810.05;110159;1242;69238;-60
2023/10/15 00:23:50;;;;;;;;;;;;;;;9.35;100.00;96809.67;110150;1245;69442;-60
2023/10/15 00:26:21;;;;;;;12.70;8.90;;;;;;;9.29;100.00;96806.66;110115;1246;60553;-60
2023/10/15 00:28:55;;;;;;;10.40;8.00;;;;;;;9.25;100.00;96810.80;110138;1244;60489;-58
2023/10/15 00:31:25;;;;;;;12.30;8.20;;;;;;;9.23;100.00;96816.91;110142;1242;71467;-59
2023/10/15 00:33:55;;;;;;;11.10;8.80;;;;;;;9.19;100.00;96811.73;110153;1242;68565;-59
2023/10/15 00:36:26;;;;;;;;;;;;;;;9.17;100.00;96817.33;110154;1241;69862;-58
2023/10/15 00:38:56;;;;;;;10.30;7.40;;;;;;;9.12;100.00;96817.48;110165;1245;60930;-61
2023/10/15 00:41:27;;;;;;;11.30;8.20;;;;;;;9.12;100.00;96817.66;110202;1242;60441;-60
2023/10/15 00:43:59;;;;;;;10.70;8.20;;;;;;;9.08;100.00;96812.06;110142;1242;72435;-59
2023/10/15 00:46:37;;;;;;;11.50;8.50;;;;;;;9.03;100.00;96811.58;110128;1241;69825;-59
2023/10/15 00:49:14;;;;;;;15.20;9.10;;;;;;;8.99;100.00;96813.48;110170;1245;69885;-59
2023/10/15 00:51:46;;;;;;;11.50;8.90;;;;;;;8.94;100.00;96813.51;110130;1243;60509;-60
2023/10/15 00:54:16;;;;;;;11.70;8.00;;;;;;;8.90;100.00;96815.33;110143;1245;60531;-60
2023/10/15 00:56:54;;;;;;;12.70;8.70;;;;;;;8.88;100.00;96817.05;110147;1245;72217;-60
2023/10/15 00:59:43;;;;;;;11.70;8.50;;;;;;;8.87;100.00;96816.45;110110;1244;68349;-60
2023/10/15 01:02:22;;;;;;;9.80;7.30;;;;;;;8.88;100.00;96818.34;110111;1244;69708;-60
2023/10/15 01:04:57;;;;;;;13.10;9.30;;;;;;;8.90;100.00;96816.76;110141;1246;60513;-59
2023/10/15 01:07:51;;;;;;;8.90;7.10;;;;;;;8.91;100.00;96813.21;110133;1246;60559;-59
2023/10/15 01:10:36;;;;;;;11.20;7.60;;;;;;;8.92;100.00;96812.27;110144;1245;71651;-58
2023/10/15 01:13:21;;;;;;;8.80;7.10;;;;;;;8.89;100.00;96808.11;110101;1242;69009;-60
2023/10/15 01:15:59;;;;;;;11.60;9.20;;;;;;;8.86;100.00;96808.56;110122;1242;69331;-58
2023/10/15 01:18:34;;;;;;;10.40;8.20;;;;;;;8.82;100.00;96807.25;110124;1245;60581;-59
2023/10/15 01:21:09;;;;;;;10.50;7.90;;;;;;;8.81;100.00;96804.42;110113;1245;60485;-59
2023/10/15 01:26:17;;;;;;;9.70;6.80;;;;;;;8.77;100.00;96800.17;110125;1241;69180;-59
2023/10/15 01:28:52;;;;;;;9.10;6.10;;;;;;;8.74;100.00;96800.40;110095;1244;69314;-60
2023/10/15 01:31:24;;;;;;;10.40;7.60;;;;;;;8.72;100.00;96793.13;110126;1244;60952;-59
2023/10/15 01:33:56;;;;;;;8.90;7.00;;;;;;;8.69;100.00;96790.91;110145;1241;60495;-59
2023/10/15 01:36:27;;;;;;;10.80;8.10;;;;;;;8.66;100.00;96792.87;110135;1242;72223;-59
2023/10/15 01:38:58;;;;;;;15.00;9.20;;;;;;;8.65;100.00;96791.53;110132;1245;68642;-58
2023/10/15 01:41:29;;;;;;;10.50;8.40;;;;;;;8.66;100.00;96791.25;110138;1243;69607;-58
2023/10/15 01:44:01;;;;;;;11.30;8.60;;;;;;;8.66;100.00;96792.15;110125;1241;60621;-59
2023/10/15 01:47:10;;;;;;;8.70;7.80;;;;;;;8.65;100.00;96795.14;110175;1244;60432;-59
2023/10/15 01:49:36;;;;;;;10.00;7.30;;;;;;;8.65;100.00;96792.24;110151;1245;71835;-57
2023/10/15 01:52:10;;;;;;;12.20;8.80;;;;;;;8.63;100.00;96789.60;110156;1243;68341;-60
2023/10/15 01:54:45;;;;;;;12.50;9.10;;;;;;;8.62;100.00;96792.06;110100;1241;69316;-60
2023/10/15 01:57:16;;;;;;;10.40;8.20;;;;;;;8.61;100.00;96787.45;110116;1245;60512;-61
2023/10/15 01:59:48;;;;;;;12.80;8.20;;;;;;;8.57;100.00;96787.41;110146;1242;60929;-59
2023/10/15 02:02:23;;;;;;;12.40;9.20;;;;;;;8.49;100.00;96789.12;110153;1245;71949;-57
2023/10/15 02:04:57;;;;;;;9.40;7.60;;;;;;;8.40;100.00;96787.83;110119;1244;67348;-58
2023/10/15 02:07:31;;;;;;;9.40;7.50;;;;;;;8.35;100.00;96794.05;110101;1244;69209;-59
2023/10/15 02:10:05;;;;;;;11.20;8.40;;;;;;;8.33;100.00;96794.71;110145;1245;60515;-58
2023/10/15 02:12:37;;;;;;;11.40;8.80;;;;;;;8.35;100.00;96796.35;110118;1244;60555;-59
2023/10/15 02:15:22;;;;;;;10.90;9.40;;;;;;;8.36;100.00;96798.15;110162;1242;71572;-59
2023/10/15 02:17:53;;;;;;;9.00;7.30;;;;;;;8.35;100.00;96792.30;110157;1243;67505;-59
2023/10/15 02:20:44;;;;;;;9.60;7.20;;;;;;;8.35;100.00;96792.13;110149;1244;69290;-59
2023/10/15 02:23:15;;;;;;;9.70;7.40;;;;;;;8.33;100.00;96789.02;110073;1241;60518;-57
2023/10/15 02:25:47;;;;;;;10.60;7.20;;;;;;;8.30;100.00;96785.91;110170;1245;60451;-59
2023/10/15 02:28:17;;;;;;;10.80;7.10;;;;;;;8.29;100.00;96785.65;110158;1243;71256;-57
2023/10/15 02:30:48;;;;;;;9.10;7.20;;;;;;;8.28;100.00;96783.66;110161;1244;68365;-59
2023/10/15 02:33:19;;;;;;;8.60;6.60;;;;;;;8.27;100.00;96780.46;110075;1245;68256;-58
2023/10/15 02:35:54;;;;;;;8.40;6.10;;;;;;;8.26;100.00;96777.89;110093;1244;60507;-59
2023/10/15 02:38:36;;;;;;;9.60;7.40;;;;;;;8.25;100.00;96774.48;110116;1244;60504;-58
2023/10/15 02:41:11;;;;;;;12.10;7.80;;;;;;;8.28;100.00;96776.92;110135;1245;72340;-59
2023/10/15 02:43:57;;;;;;;9.90;7.40;;;;;;;8.26;100.00;96772.85;110121;1241;69378;-59
2023/10/15 02:49:07;;;;;;;10.30;7.50;;;;;;;8.23;100.00;96771.91;110110;1241;60551;-59
2023/10/15 02:51:41;;;;;;;9.60;7.50;;;;;;;8.20;100.00;96773.96;110231;1241;60468;-58
2023/10/15 02:54:27;;;;;;;9.90;8.00;;;;;;;8.13;100.00;96771.74;110118;1241;71274;-58
2023/10/15 02:56:59;;;;;;;10.20;7.80;;;;;;;8.08;100.00;96771.96;110093;1241;68472;-59
2023/10/15 02:59:31;;;;;;;8.80;7.50;;;;;;;8.05;100.00;96769.55;110140;1245;68385;-59
2023/10/15 03:02:06;;;;;;;10.30;7.70;;;;;;;8.02;100.00;96762.77;110162;1241;60526;-59
2023/10/15 03:04:38;;;;;;;9.60;7.40;;;;;;;8.04;100.00;96763.86;110154;1242;60502;-58
2023/10/15 03:07:19;;;;;;;11.70;8.10;;;;;;;8.02;100.00;96760.55;110166;1241;72190;-59
2023/10/15 03:09:56;;;;;;;9.20;6.80;;;;;;;8.00;100.00;96758.79;110075;1244;69255;-59
2023/10/15 03:12:33;;;;;;;9.30;7.00;;;;;;;7.97;100.00;96756.23;110105;1251;69371;-59
2023/10/15 03:15:07;;;;;;;10.80;7.40;;;;;;;7.96;100.00;96750.04;110032;1245;60556;-59
2023/10/15 03:17:42;;;;;;;8.80;6.70;;;;;;;7.96;100.00;96751.11;110177;1244;60496;-59
2023/10/15 03:22:51;;;;;;;10.80;6.90;;;;;;;7.97;100.00;96756.27;110116;1244;69772;-59
2023/10/15 03:25:24;;;;;;;9.30;6.90;;;;;;;7.99;100.00;96748.83;110109;1241;69326;-59
2023/10/15 03:28:00;;;;;;;10.30;7.10;;;;;;;8.01;100.00;96751.11;110105;1244;60519;-59
2023/10/15 03:30:33;;;;;;;8.30;6.20;;;;;;;8.02;100.00;96748.21;110112;1244;60503;-60
2023/10/15 03:33:07;;;;;;;10.10;7.30;;;;;;;8.04;100.00;96749.98;110149;1241;72204;-59
2023/10/15 03:35:39;;;;;;;9.50;7.60;;;;;;;8.07;100.00;96745.40;110057;1245;69310;-59
2023/10/15 03:38:23;;;;;;;11.00;8.10;;;;;;;8.04;100.00;96743.56;110137;1244;69288;-58
2023/10/15 03:41:10;;;;;;;9.80;7.70;;;;;;;7.97;100.00;96740.40;110131;1245;60544;-58
2023/10/15 03:43:46;;;;;;;11.70;7.90;;;;;;;7.86;100.00;96739.17;110137;1244;60481;-59
2023/10/15 03:46:19;;;;;;;12.10;9.00;;;;;;;7.73;100.00;96735.28;110140;1244;71292;-58
2023/10/15 03:48:50;;;;;;;9.80;7.60;;;;;;;7.61;100.00;96731.91;110126;1244;69247;-59
2023/10/15 03:51:23;;;;;;;10.30;8.10;;;;;;;7.55;100.00;96728.94;110107;1244;69119;-59
2023/10/15 03:54:06;;;;;;;9.90;6.90;;;;;;;7.51;100.00;96729.22;110142;1244;60563;-59
2023/10/15 03:56:43;;;;;;;8.60;6.60;;;;;;;7.55;100.00;96724.39;110142;1244;60511;-59
2023/10/15 03:59:15;;;;;;;8.20;6.90;;;;;;;7.59;100.00;96724.94;110182;1241;71914;-59
2023/10/15 04:01:49;;;;;;;10.10;7.30;;;;;;;7.59;100.00;96721.66;110361;1240;69377;-58
2023/10/15 04:04:20;;;;;;;11.20;8.20;;;;;;;7.59;100.00;96719.96;110285;1241;69112;-59
2023/10/15 04:07:03;;;;;;;10.40;7.80;;;;;;;7.57;100.00;96723.20;110235;1241;60549;-59
2023/10/15 04:09:34;;;;;;;10.20;7.70;;;;;;;7.55;100.00;96724.95;110200;1241;60534;-59
2023/10/15 04:12:06;;;;;;;9.00;7.10;;;;;;;7.55;100.00;96722.31;110160;1246;72276;-59
2023/10/15 04:14:37;;;;;;;7.60;6.10;;;;;;;7.56;100.00;96724.85;110258;1241;68811;-57
2023/10/15 04:17:08;;;;;;;10.50;7.70;;;;;;;7.57;100.00;96718.50;110159;1241;68550;-59
2023/10/15 04:19:38;;;;;;;12.00;8.10;;;;;;;7.63;100.00;96709.77;110166;1244;60544;-58
2023/10/15 04:22:13;;;;;;;13.30;9.10;;;;;;;7.65;100.00;96707.35;110173;1243;60914;-59
2023/10/15 04:24:50;;;;;;;13.60;9.60;;;;;;;7.58;100.00;96709.41;110116;1242;72618;-60
2023/10/15 04:27:23;;;;;;;11.20;9.20;;;;;;;7.41;100.00;96711.20;110187;1242;69203;-60
2023/10/15 04:29:55;;;;;;;15.40;10.20;;;;;;;7.24;100.00;96711.52;110159;1244;69118;-59
2023/10/15 04:35:04;;;;;;;15.00;9.80;;;;;;;7.08;100.00;96711.76;110137;1244;60501;-58
2023/10/15 04:37:36;;;;;;;15.00;10.10;;;;;;;7.04;100.00;96715.17;110158;1244;72410;-59
2023/10/15 04:40:11;;;;;;;9.50;8.40;;;;;;;7.00;100.00;96719.06;110149;1244;69260;-58
2023/10/15 04:42:50;;;;;;;11.80;8.90;;;;;;;7.01;100.00;96720.60;110151;1246;69620;-60
2023/10/15 04:45:21;;;;;;;12.80;8.10;;;;;;;7.06;100.00;96723.52;110097;1241;60468;-57
2023/10/15 04:47:53;;;;;;;12.70;9.20;;;;;;;7.14;100.00;96724.16;110109;1241;60540;-58
2023/10/15 04:50:27;;;;;;;17.60;12.10;;;;;;;7.19;100.00;96724.75;110199;1244;71627;-60
2023/10/15 04:53:12;;;;;;;20.60;16.00;;;;;;;7.20;100.00;96718.02;110229;1243;68868;-60
2023/10/15 04:55:43;;;;;;;21.20;14.90;;;;;;;7.13;100.00;96720.74;110100;1242;69275;-60
2023/10/15 04:58:14;;;;;;;22.70;15.00;;;;;;;7.12;100.00;96718.08;110105;1243;60544;-60
2023/10/15 05:00:49;;;;;;;16.60;12.30;;;;;;;7.17;100.00;96715.64;110138;1244;60482;-59
2023/10/15 05:03:19;;;;;;;12.70;9.70;;;;;;;7.26;100.00;96717.45;110103;1244;72884;-60
2023/10/15 05:05:48;;;;;;;12.40;10.00;;;;;;;7.33;100.00;96720.44;110072;1244;69102;-60
2023/10/15 05:08:17;;;;;;;14.80;9.70;;;;;;;7.39;100.00;96718.63;110120;1244;69931;-60
2023/10/15 05:10:53;;;;;;;15.80;10.10;;;;;;;7.47;100.00;96714.37;110063;1244;60572;-59
2023/10/15 05:13:26;;;;;;;14.80;10.50;;;;;;;7.58;100.00;96711.48;110018;1241;60491;-59
2023/10/15 05:15:56;;;;;;;13.20;9.10;;;;;;;7.72;100.00;96709.67;110074;1244;72211;-58
2023/10/15 05:18:29;;;;;;;10.80;8.60;;;;;;;7.84;100.00;96707.42;110022;1244;69315;-59
2023/10/15 05:21:00;;;;;;;15.00;10.70;;;;;;;7.99;100.00;96708.36;110057;1243;69127;-58
2023/10/15 05:23:30;;;;;;;15.30;11.00;;;;;;;8.11;100.00;96707.13;110140;1244;60548;-61
2023/10/15 05:25:59;;;;;;;15.70;11.40;;;;;;;8.22;100.00;96707.38;110130;1242;60494;-60
2023/10/15 05:28:29;;;;;;;14.50;10.20;;;;;;;8.34;100.00;96709.39;110167;1241;72543;-60
2023/10/15 05:30:58;;;;;;;;;;;;;;;8.55;100.00;96708.21;110059;1245;69771;-60
2023/10/15 05:33:28;;;;;;;15.60;10.00;;;;;;;8.75;100.00;96706.36;110084;1244;68741;-60
2023/10/15 05:35:58;;;;;;;16.10;11.60;;;;;;;9.00;100.00;96711.89;110069;1241;60568;-59
2023/10/15 05:38:27;;;;;;;11.60;9.50;;;;;;;9.29;100.00;96715.04;110102;1244;60470;-59
2023/10/15 05:40:59;;;;;;;15.00;12.00;;;;;;;9.58;100.00;96719.02;110165;1240;72233;-61
2023/10/15 05:43:30;;;;;;;16.80;11.20;;;;;;;9.89;100.00;96723.06;110320;1243;69825;-61
2023/10/15 05:45:59;;;;;;;27.20;18.70;;;;;;;10.24;100.00;96715.54;110288;1242;69749;-60
2023/10/15 05:48:28;;;;;;;23.00;17.50;;;;;;;10.56;100.00;96714.50;110119;1241;60572;-61
2023/10/15 05:50:58;;;;;;;32.30;22.80;;;;;;;10.78;100.00;96708.98;110099;1243;60520;-60
2023/10/15 05:53:26;;;;;;;30.40;23.10;;;;;;;10.92;100.00;96711.92;110092;1244;73209;-60
2023/10/15 05:55:58;;;;;;;25.80;19.00;;;;;;;11.00;100.00;96713.91;110131;1241;69537;-60
2023/10/15 05:58:28;;;;;;;28.10;21.10;;;;;;;11.10;100.00;96716.33;110133;1241;69888;-61
2023/10/15 06:00:57;;;;;;;27.80;19.70;;;;;;;11.23;100.00;96713.12;110136;1243;60481;-59
2023/10/15 06:03:27;;;;;;;22.90;17.60;;;;;;;11.54;100.00;96711.09;110163;1242;60446;-59
2023/10/15 06:05:57;;;;;;;19.70;15.90;;;;;;;11.84;100.00;96710.25;110178;1245;72199;-59
2023/10/15 06:08:26;;;;;;;21.10;15.90;;;;;;;11.98;100.00;96710.39;110160;1243;69675;-59
2023/10/15 06:10:57;;;;;;;22.10;15.90;;;;;;;12.04;100.00;96712.13;110231;1241;69249;-60
2023/10/15 06:13:26;;;;;;;21.20;16.30;;;;;;;12.12;100.00;96706.02;110124;1243;60532;-60
2023/10/15 06:15:56;;;;;;;20.10;15.90;;;;;;;12.31;100.00;96705.34;110254;1241;60486;-59
2023/10/15 06:18:25;;;;;;;19.20;14.50;;;;;;;12.47;100.00;96705.09;110219;1242;72794;-59
2023/10/15 06:20:54;;;;;;;15.90;12.40;;;;;;;12.72;100.00;96703.80;110192;1244;69811;-61
2023/10/15 06:23:23;;;;;;;13.50;10.20;;;;;;;12.97;100.00;96702.61;110132;1241;68597;-59
2023/10/15 06:25:53;;;;;;;13.40;10.50;;;;;;;13.13;99.97;96704.88;110232;1244;60501;-60
2023/10/15 06:28:22;;;;;;;12.50;9.40;;;;;;;13.32;100.00;96705.64;110119;1241;60553;-60
2023/10/15 06:30:54;;;;;;;11.40;9.00;;;;;;;13.44;99.26;96708.14;110160;1241;71503;-60
2023/10/15 06:33:24;;;;;;;11.00;9.30;;;;;;;13.56;99.13;96703.95;110179;1241;69655;-60
2023/10/15 06:35:53;;;;;;;12.00;9.40;;;;;;;13.64;98.91;96700.44;110143;1244;68328;-61
2023/10/15 06:38:25;;;;;;;10.70;8.90;;;;;;;13.67;99.33;96701.85;110118;1243;60530;-60
2023/10/15 06:40:54;;;;;;;12.80;9.10;;;;;;;13.64;100.00;96702.00;110114;1244;60486;-59
2023/10/15 06:43:23;;;;;;;9.70;8.60;;;;;;;13.55;100.00;96699.67;110064;1241;72772;-61
2023/10/15 06:45:52;;;;;;;15.30;10.50;;;;;;;13.56;100.00;96700.34;110126;1242;70153;-60
2023/10/15 06:48:22;;;;;;;13.20;9.60;;;;;;;13.53;100.00;96696.98;110172;1244;69182;-61
2023/10/15 06:50:53;;;;;;;13.20;10.10;;;;;;;13.54;100.00;96697.00;110169;1241;60508;-61
2023/10/15 06:53:23;;;;;;;12.80;9.80;;;;;;;13.62;100.00;96693.30;110136;1244;60487;-60
2023/10/15 06:55:52;;;;;;;10.80;9.30;;;;;;;13.67;100.00;96698.39;110168;1244;72250;-60
2023/10/15 06:58:21;;;;;;;12.30;9.70;;;;;;;13.78;100.00;96701.50;110172;1246;69286;-60
2023/10/15 07:00:53;;;;;;;11.30;9.50;;;;;;;13.89;100.00;96699.73;110152;1244;69394;-60
2023/10/15 07:03:23;;;;;;;14.90;11.90;;;;;;;13.97;100.00;96699.52;110263;1243;60438;-61
2023/10/15 07:05:53;;;;;;;13.20;10.30;;;;;;;14.03;100.00;96699.64;110193;1241;60538;-60
2023/10/15 07:08:22;;;;;;;15.20;11.50;;;;;;;14.11;100.00;96700.60;110253;1241;72239;-61
2023/10/15 07:10:53;;;;;;;15.00;12.40;;;;;;;14.17;100.00;96703.11;110070;1241;68293;-60
2023/10/15 07:13:22;;;;;;;13.80;10.90;;;;;;;14.20;100.00;96703.00;110107;1241;68334;-60
2023/10/15 07:15:51;;;;;;;13.20;11.40;;;;;;;14.24;100.00;96701.36;110136;1244;60505;-60
2023/10/15 07:18:20;;;;;;;14.10;11.50;;;;;;;14.29;100.00;96699.86;110116;1244;60433;-60
2023/10/15 07:20:49;;;;;;;14.10;11.90;;;;;;;14.36;100.00;96701.43;110129;1243;72647;-60
2023/10/15 07:23:19;;;;;;;16.90;12.70;;;;;;;14.45;100.00;96697.92;110266;1243;69471;-61
2023/10/15 07:25:48;;;;;;;15.20;11.60;;;;;;;14.44;100.00;96695.21;110212;1244;69892;-61
2023/10/15 07:28:17;;;;;;;16.00;10.10;;;;;;;14.46;100.00;96693.96;110213;1243;60574;-61
2023/10/15 07:30:49;;;;;;;17.00;12.80;;;;;;;14.52;100.00;96693.76;110158;1243;60449;-60
2023/10/15 07:33:20;;;;;;;17.30;11.30;;;;;;;14.52;100.00;96694.08;110126;1244;72297;-61
2023/10/15 07:35:48;;;;;;;18.70;12.40;;;;;;;14.54;100.00;96695.45;110131;1245;70171;-62
2023/10/15 07:38:18;;;;;;;18.50;12.20;;;;;;;14.48;99.87;96694.08;110129;1241;69721;-61
2023/10/15 07:40:47;;;;;;;14.30;11.00;;;;;;;14.44;100.00;96692.69;110158;1243;60559;-61
2023/10/15 07:43:17;;;;;;;14.00;10.30;;;;;;;14.48;100.00;96692.34;110156;1243;60540;-60
2023/10/15 07:45:46;;;;;;;16.60;10.80;;;;;;;14.53;100.00;96687.10;110075;1241;72063;-61
2023/10/15 07:48:15;;;;;;;11.00;9.00;;;;;;;14.58;100.00;96686.80;110164;1244;68491;-59
2023/10/15 07:50:45;;;;;;;15.70;10.60;;;;;;;14.65;100.00;96682.38;110060;1244;69865;-59
2023/10/15 07:53:14;;;;;;;12.40;8.80;;;;;;;14.71;99.83;96683.43;110171;1241;60517;-58
2023/10/15 07:55:44;;;;;;;15.70;8.50;;;;;;;14.76;99.60;96685.54;110171;1244;60529;-59
2023/10/15 07:58:13;;;;;;;10.70;7.80;;;;;;;14.81;99.64;96686.44;110152;1244;72327;-61
2023/10/15 08:00:42;;;;;;;8.80;6.40;;;;;;;14.92;99.74;96686.92;110101;1241;68393;-59
2023/10/15 08:03:18;;;;;;;10.30;6.40;;;;;;;15.09;96.29;96686.58;110064;1242;69008;-60
2023/10/15 08:05:48;;;;;;;8.20;6.00;;;;;;;15.24;96.29;96683.95;110232;1243;60842;-59
2023/10/15 08:08:17;;;;;;;8.30;6.00;;;;;;;15.39;94.92;96680.66;110191;1241;60555;-60
2023/10/15 08:10:47;;;;;;;6.90;5.80;;;;;;;15.55;92.45;96679.81;110136;1243;72814;-60
2023/10/15 08:13:18;;;;;;;7.10;5.10;;;;;;;15.72;90.26;96681.27;110218;1244;68474;-62
2023/10/15 08:15:47;;;;;;;7.20;5.40;;;;;;;15.86;90.08;96680.19;110136;1243;69890;-60
2023/10/15 08:18:16;;;;;;;6.60;5.60;;;;;;;15.98;89.45;96677.66;110102;1243;60549;-60
2023/10/15 08:20:46;;;;;;;7.80;5.60;;;;;;;16.09;90.05;96677.34;110128;1244;60504;-60
2023/10/15 08:23:15;;;;;;;;;;;;;;;16.17;89.77;96676.23;110205;1241;72028;-60
2023/10/15 08:25:45;;;;;;;7.00;6.00;;;;;;;16.21;87.71;96678.64;110164;1241;69685;-60
2023/10/15 08:28:15;;;;;;;6.90;5.80;;;;;;;16.35;88.50;96678.27;110151;1241;69290;-60
2023/10/15 08:30:44;;;;;;;8.90;6.20;;;;;;;16.45;86.84;96679.03;110109;1244;60501;-60
2023/10/15 08:33:13;;;;;;;;;;;;;;;16.49;85.68;96677.77;110227;1244;60563;-60
2023/10/15 08:35:43;;;;;;;8.10;6.10;;;;;;;16.56;85.35;96677.02;110139;1244;72153;-60
2023/10/15 08:38:13;;;;;;;9.10;6.20;;;;;;;16.60;83.82;96673.41;110117;1242;68344;-60
2023/10/15 08:40:49;;;;;;;5.40;4.60;;;;;;;16.71;84.61;96668.33;110148;1243;69134;-60
2023/10/15 08:43:29;;;;;;;6.90;5.60;;;;;;;16.87;84.79;96666.83;110098;1244;60902;-60
2023/10/15 08:46:01;;;;;;;6.90;5.40;;;;;;;16.94;83.40;96663.70;110246;1241;60562;-60
2023/10/15 08:48:34;;;;;;;7.40;5.50;;;;;;;17.10;83.90;96662.02;110137;1244;72778;-60
2023/10/15 08:51:04;;;;;;;6.80;4.70;;;;;;;17.30;83.07;96662.02;110079;1244;69843;-60
2023/10/15 08:53:36;;;;;;;7.00;4.70;;;;;;;17.47;82.27;96660.13;110052;1241;69775;-60
2023/10/15 08:56:05;;;;;;;9.10;6.40;;;;;;;17.63;81.91;96655.27;110050;1244;60564;-60
2023/10/15 08:58:36;;;;;;;7.40;5.80;;;;;;;17.79;81.89;96652.62;110037;1241;60512;-60
2023/10/15 09:01:05;;;;;;;7.20;5.30;;;;;;;18.03;80.60;96646.36;110085;1241;71451;-60
2023/10/15 09:03:38;;;;;;;7.20;5.30;;;;;;;18.30;81.37;96648.32;110109;1244;69681;-60
2023/10/15 09:06:07;;;;;;;7.20;6.00;;;;;;;18.60;77.71;96646.77;110063;1244;68429;-62
2023/10/15 09:08:41;;;;;;;7.70;5.80;;;;;;;18.84;75.86;96646.60;109531;1244;729593;-60
2023/10/15 09:11:12;;;;;;;7.30;5.60;;;;;;;19.00;72.79;96642.20;110089;1241;60539;-60
2023/10/15 09:13:49;;;;;;;7.00;5.90;;;;;;;19.26;70.69;96641.08;110081;1244;72969;-61
2023/10/15 09:16:21;;;;;;;8.80;5.90;;;;;;;19.80;70.06;96638.59;110071;1241;68467;-61
2023/10/15 09:18:51;;;;;;;8.50;5.80;;;;;;;20.54;64.16;96634.05;110074;1241;69908;-60
2023/10/15 09:21:24;;;;;;;9.00;6.50;;;;;;;21.24;62.02;96637.63;110184;1243;60496;-60
2023/10/15 09:23:53;;;;;;;9.20;5.90;;;;;;;21.79;57.33;96638.21;110142;1241;60513;-60
2023/10/15 09:26:22;;;;;;;7.30;6.00;;;;;;;22.14;56.94;96637.97;110163;1241;72804;-60
2023/10/15 09:28:51;;;;;;;8.60;6.30;;;;;;;22.06;55.39;96641.00;110200;1243;69246;-61
2023/10/15 09:31:21;;;;;;;;;;;;;;;21.99;54.71;96641.14;110126;1243;69232;-61
2023/10/15 09:33:54;;;;;;;;;;;;;;;22.33;56.59;96631.08;110069;1243;60521;-61
2023/10/15 09:36:23;;;;;;;7.00;5.70;;;;;;;22.86;56.74;96631.39;110132;1243;60482;-60
2023/10/15 09:38:54;;;;;;;9.10;6.40;;;;;;;22.77;52.60;96633.96;110199;1241;72145;-61
2023/10/15 09:41:25;;;;;;;8.00;5.60;;;;;;;23.29;51.21;96635.84;110166;1243;68528;-60
2023/10/15 09:43:57;;;;;;;7.40;5.90;;;;;;;23.89;51.91;96639.09;110194;1244;69233;-60
2023/10/15 09:46:27;;;;;;;9.10;6.20;;;;;;;24.70;49.92;96627.35;110200;1241;60490;-61
2023/10/15 09:48:57;;;;;;;8.80;6.40;;;;;;;24.90;47.48;96617.75;110132;1241;60531;-61
2023/10/15 09:51:27;;;;;;;8.50;6.90;;;;;;;25.10;46.80;96611.98;110139;1241;72762;-61
2023/10/15 09:53:59;;;;;;;11.10;6.50;;;;;;;25.52;45.92;96604.58;110196;1244;69200;-61
2023/10/15 09:56:30;;;;;;;7.70;5.80;;;;;;;26.00;44.31;96603.89;110262;1245;68527;-61
2023/10/15 09:59:02;;;;;;;7.90;5.60;;;;;;;26.73;42.02;96600.27;110131;1244;60548;-62
2023/10/15 10:01:32;;;;;;;9.30;6.90;;;;;;;26.47;41.11;96608.09;110186;1244;60446;-61
2023/10/15 10:04:26;;;;;;;8.50;6.60;;;;;;;26.96;41.70;96607.81;110130;1241;72772;-61
2023/10/15 10:07:37;;;;;;;8.90;7.80;;;;;;;27.95;43.07;96610.71;110157;1244;69080;-61
2023/10/15 10:10:40;;;;;;;8.90;7.30;;;;;;;28.55;39.96;96602.08;110023;1251;69863;-60
2023/10/15 10:13:42;;;;;;;9.20;7.50;;;;;;;28.50;38.03;96610.48;110145;1244;60576;-61
2023/10/15 10:16:24;;;;;;;9.70;7.30;;;;;;;29.06;38.71;96611.47;110181;1244;60515;-61
2023/10/15 10:18:53;;;;;;;8.40;7.10;;;;;;;29.16;37.64;96613.10;110194;1240;72399;-60
2023/10/15 10:21:29;;;;;;;8.10;6.90;;;;;;;29.49;37.57;96619.73;110170;1241;69295;-60
2023/10/15 10:23:59;;;;;;;10.60;8.30;;;;;;;28.94;37.35;96613.43;110072;1243;68282;-60
2023/10/15 10:26:32;;;;;;;12.20;9.30;;;;;;;29.03;36.28;96609.79;110102;1244;60475;-60
2023/10/15 10:29:02;;;;;;;12.50;9.60;;;;;;;27.44;37.85;96602.45;110102;1241;60544;-59
2023/10/15 10:31:34;;;;;;;11.10;9.40;;;;;;;26.95;38.62;96598.55;110212;1243;72355;-61
2023/10/15 10:34:04;;;;;;;13.20;10.30;;;;;;;27.14;39.27;96598.39;110233;1244;69792;-62
2023/10/15 10:36:39;;;;;;;14.50;12.10;;;;;;;27.81;38.76;96592.02;110202;1242;68661;-59
2023/10/15 10:39:12;;;;;;;16.70;13.50;;;;;;;28.47;38.94;96588.78;110132;1241;60482;-60
2023/10/15 10:41:50;;;;;;;16.60;12.00;;;;;;;28.69;37.47;96592.90;110244;1241;60540;-62
2023/10/15 10:44:21;;;;;;;12.40;9.90;;;;;;;28.75;37.26;96591.36;110145;1244;71956;-60
2023/10/15 10:46:58;;;;;;;11.10;9.00;;;;;;;28.87;37.05;96592.64;110086;1244;69233;-61
2023/10/15 10:49:37;;;;;;;10.40;9.40;;;;;;;28.98;36.55;96590.15;110148;1241;69589;-61
2023/10/15 10:52:12;;;;;;;;;;;;;;;28.97;37.18;96589.82;110250;1243;60479;-61
2023/10/15 10:54:42;;;;;;;9.60;8.20;;;;;;;27.43;38.07;96593.30;110131;1244;60438;-60
2023/10/15 10:57:11;;;;;;;10.20;9.10;;;;;;;28.11;37.97;96589.50;110302;1241;72166;-60
2023/10/15 10:59:42;;;;;;;12.60;9.20;;;;;;;28.01;37.95;96584.98;110212;1241;69744;-61
2023/10/15 11:02:13;;;;;;;15.80;10.10;;;;;;;28.03;38.50;96582.40;110189;1243;69267;-60
2023/10/15 11:04:43;;;;;;;14.30;9.70;;;;;;;27.84;38.39;96582.55;110125;1243;60518;-60
2023/10/15 11:07:15;;;;;;;11.50;8.80;;;;;;;27.72;38.22;96577.26;110190;1244;60515;-61
2023/10/15 11:09:44;;;;;;;12.30;9.80;;;;;;;27.54;38.74;96570.66;110140;1244;71788;-60
2023/10/15 11:12:14;;;;;;;12.50;10.60;;;;;;;27.65;38.72;96571.27;110081;1244;69807;-59
2023/10/15 11:14:44;;;;;;;11.30;9.50;;;;;;;27.54;38.92;96560.38;110147;1241;69426;-60
2023/10/15 11:17:13;;;;;;;11.40;8.90;;;;;;;27.61;38.77;96557.06;110143;1244;60513;-61
2023/10/15 11:19:43;;;;;;;9.80;8.30;;;;;;;27.56;38.62;96555.59;110216;1242;60565;-61
2023/10/15 11:22:14;;;;;;;10.00;8.30;;;;;;;27.54;38.74;96554.84;110224;1244;72600;-60
2023/10/15 11:24:44;;;;;;;9.20;7.90;;;;;;;27.08;39.29;96547.86;110178;1243;70208;-61
2023/10/15 11:27:13;;;;;;;9.60;8.70;;;;;;;27.28;38.98;96540.50;110225;1243;69918;-61
2023/10/15 11:29:43;;;;;;;9.30;7.40;;;;;;;27.22;39.47;96539.25;110202;1243;60497;-61
2023/10/15 11:32:15;;;;;;;7.70;6.80;;;;;;;27.74;38.98;96538.42;110219;1244;60444;-61
2023/10/15 11:34:45;;;;;;;10.30;7.70;;;;;;;28.02;38.82;96536.80;110141;1243;72199;-61
2023/10/15 11:37:16;;;;;;;10.90;9.10;;;;;;;28.52;37.74;96537.20;110213;1244;69186;-61
2023/10/15 11:39:48;;;;;;;8.90;7.30;;;;;;;28.69;37.77;96530.89;110267;1241;69899;-61
2023/10/15 11:42:19;;;;;;;7.90;7.10;;;;;;;29.16;36.97;96530.98;110229;1241;60563;-62
2023/10/15 11:44:55;;;;;;;7.70;7.00;;;;;;;29.62;36.24;96522.54;110210;1244;60562;-60
2023/10/15 11:47:26;;;;;;;9.20;7.40;;;;;;;29.24;35.57;96519.56;110196;1243;72781;-61
2023/10/15 11:49:59;;;;;;;10.50;8.10;;;;;;;29.01;36.12;96522.86;110175;1242;69815;-62
2023/10/15 11:52:28;;;;;;;9.20;7.30;;;;;;;29.15;36.24;96524.51;110229;1243;69280;-61
2023/10/15 11:54:57;;;;;;;7.70;6.90;;;;;;;29.17;36.25;96528.25;110204;1243;60587;-61